sensor_id;sensor_type;location;lat;lon;timestamp;P1;durP1;ratioP1;P2;durP2;ratioP2
12367;SDS011;6248;49.812;6.620;2024-02-21T00:00:17;13.93;;;6.40;;
12367;SDS011;6248;49.812;6.620;2024-02-21T00:02:45;12.83;;;5.90;;
12367;SDS011;6248;49.812;6.620;2024-02-21T00:05:12;15.57;;;6.30;;
12367;SDS011;6248;49.812;6.620;2024-02-21T00:07:39;14.33;;;6.07;;
12367;SDS011;6248;49.812;6.620;2024-02-21T00:10:07;14.03;;;5.73;;
12367;SDS011;6248;49.812;6.620;2024-02-21T00:12:35;13.83;;;6.53;;
12367;SDS011;6248;49.812;6.620;2024-02-21T00:15:02;12.50;;;5.80;;
12367;SDS011;6248;49.812;6.620;2024-02-21T00:17:30;11.77;;;6.00;;
12367;SDS011;6248;49.812;6.620;2024-02-21T00:19:57;11.40;;;5.87;;
12367;SDS011;6248;49.812;6.620;2024-02-21T00:22:25;10.27;;;5.67;;
12367;SDS011;6248;49.812;6.620;2024-02-21T00:24:54;14.20;;;5.97;;
12367;SDS011;6248;49.812;6.620;2024-02-21T00:27:21;10.23;;;5.37;;
12367;SDS011;6248;49.812;6.620;2024-02-21T00:29:48;10.97;;;5.53;;
12367;SDS011;6248;49.812;6.620;2024-02-21T00:32:15;13.97;;;6.20;;
12367;SDS011;6248;49.812;6.620;2024-02-21T00:34:44;15.93;;;6.00;;
12367;SDS011;6248;49.812;6.620;2024-02-21T00:37:11;8.10;;;5.53;;
12367;SDS011;6248;49.812;6.620;2024-02-21T00:39:38;14.80;;;6.40;;
12367;SDS011;6248;49.812;6.620;2024-02-21T00:42:05;12.67;;;5.93;;
12367;SDS011;6248;49.812;6.620;2024-02-21T00:44:32;14.10;;;5.80;;
12367;SDS011;6248;49.812;6.620;2024-02-21T00:47:00;13.57;;;6.33;;
12367;SDS011;6248;49.812;6.620;2024-02-21T00:49:27;19.53;;;9.50;;
12367;SDS011;6248;49.812;6.620;2024-02-21T00:51:55;13.93;;;5.70;;
12367;SDS011;6248;49.812;6.620;2024-02-21T00:54:22;14.80;;;5.57;;
12367;SDS011;6248;49.812;6.620;2024-02-21T00:56:49;12.33;;;5.57;;
12367;SDS011;6248;49.812;6.620;2024-02-21T00:59:16;8.53;;;4.93;;
12367;SDS011;6248;49.812;6.620;2024-02-21T01:01:43;9.03;;;5.00;;
12367;SDS011;6248;49.812;6.620;2024-02-21T01:04:11;13.27;;;4.80;;
12367;SDS011;6248;49.812;6.620;2024-02-21T01:06:38;10.60;;;5.20;;
12367;SDS011;6248;49.812;6.620;2024-02-21T01:09:09;10.13;;;5.13;;
12367;SDS011;6248;49.812;6.620;2024-02-21T01:11:36;10.70;;;5.60;;
12367;SDS011;6248;49.812;6.620;2024-02-21T01:14:03;13.67;;;6.17;;
12367;SDS011;6248;49.812;6.620;2024-02-21T01:16:30;12.20;;;6.00;;
12367;SDS011;6248;49.812;6.620;2024-02-21T01:18:57;14.47;;;5.80;;
12367;SDS011;6248;49.812;6.620;2024-02-21T01:21:24;12.10;;;6.10;;
12367;SDS011;6248;49.812;6.620;2024-02-21T01:23:51;11.77;;;6.00;;
12367;SDS011;6248;49.812;6.620;2024-02-21T01:26:20;12.63;;;5.90;;
12367;SDS011;6248;49.812;6.620;2024-02-21T01:28:47;11.87;;;5.40;;
12367;SDS011;6248;49.812;6.620;2024-02-21T01:31:14;12.37;;;5.60;;
12367;SDS011;6248;49.812;6.620;2024-02-21T01:33:41;12.63;;;5.50;;
12367;SDS011;6248;49.812;6.620;2024-02-21T01:36:08;12.07;;;5.77;;
12367;SDS011;6248;49.812;6.620;2024-02-21T01:38:36;11.53;;;5.40;;
12367;SDS011;6248;49.812;6.620;2024-02-21T01:41:03;12.97;;;5.57;;
12367;SDS011;6248;49.812;6.620;2024-02-21T01:43:31;9.47;;;5.27;;
12367;SDS011;6248;49.812;6.620;2024-02-21T01:45:58;11.70;;;5.50;;
12367;SDS011;6248;49.812;6.620;2024-02-21T01:48:26;10.37;;;5.17;;
12367;SDS011;6248;49.812;6.620;2024-02-21T01:50:54;13.73;;;5.30;;
12367;SDS011;6248;49.812;6.620;2024-02-21T01:53:22;13.60;;;6.40;;
12367;SDS011;6248;49.812;6.620;2024-02-21T01:55:50;12.63;;;5.90;;
12367;SDS011;6248;49.812;6.620;2024-02-21T01:58:17;12.13;;;5.57;;
12367;SDS011;6248;49.812;6.620;2024-02-21T02:00:47;10.37;;;5.13;;
12367;SDS011;6248;49.812;6.620;2024-02-21T02:03:14;10.20;;;5.67;;
12367;SDS011;6248;49.812;6.620;2024-02-21T02:05:42;10.33;;;5.80;;
12367;SDS011;6248;49.812;6.620;2024-02-21T02:08:10;12.13;;;5.70;;
12367;SDS011;6248;49.812;6.620;2024-02-21T02:10:46;8.80;;;5.43;;
12367;SDS011;6248;49.812;6.620;2024-02-21T02:13:13;9.43;;;5.73;;
12367;SDS011;6248;49.812;6.620;2024-02-21T02:15:40;12.37;;;6.00;;
12367;SDS011;6248;49.812;6.620;2024-02-21T02:18:09;12.07;;;6.73;;
12367;SDS011;6248;49.812;6.620;2024-02-21T02:20:37;12.47;;;6.40;;
12367;SDS011;6248;49.812;6.620;2024-02-21T02:23:06;13.90;;;6.23;;
12367;SDS011;6248;49.812;6.620;2024-02-21T02:25:35;12.57;;;5.97;;
12367;SDS011;6248;49.812;6.620;2024-02-21T02:28:03;12.17;;;5.90;;
12367;SDS011;6248;49.812;6.620;2024-02-21T02:30:31;10.93;;;5.87;;
12367;SDS011;6248;49.812;6.620;2024-02-21T02:32:59;10.73;;;5.70;;
12367;SDS011;6248;49.812;6.620;2024-02-21T02:35:26;13.13;;;5.57;;
12367;SDS011;6248;49.812;6.620;2024-02-21T02:37:53;9.77;;;5.27;;
12367;SDS011;6248;49.812;6.620;2024-02-21T02:40:21;10.07;;;5.63;;
12367;SDS011;6248;49.812;6.620;2024-02-21T02:42:49;10.63;;;5.97;;
12367;SDS011;6248;49.812;6.620;2024-02-21T02:45:16;11.43;;;5.87;;
12367;SDS011;6248;49.812;6.620;2024-02-21T02:47:44;11.07;;;5.93;;
12367;SDS011;6248;49.812;6.620;2024-02-21T02:50:12;10.90;;;5.10;;
12367;SDS011;6248;49.812;6.620;2024-02-21T02:52:39;10.37;;;5.17;;
12367;SDS011;6248;49.812;6.620;2024-02-21T02:55:06;12.37;;;5.17;;
12367;SDS011;6248;49.812;6.620;2024-02-21T02:57:33;10.87;;;6.40;;
12367;SDS011;6248;49.812;6.620;2024-02-21T03:00:02;10.43;;;5.60;;
12367;SDS011;6248;49.812;6.620;2024-02-21T03:02:29;11.60;;;5.30;;
12367;SDS011;6248;49.812;6.620;2024-02-21T03:04:57;9.97;;;5.20;;
12367;SDS011;6248;49.812;6.620;2024-02-21T03:07:24;10.90;;;4.97;;
12367;SDS011;6248;49.812;6.620;2024-02-21T03:09:52;10.17;;;4.60;;
12367;SDS011;6248;49.812;6.620;2024-02-21T03:12:19;10.77;;;5.03;;
12367;SDS011;6248;49.812;6.620;2024-02-21T03:14:52;11.57;;;5.00;;
12367;SDS011;6248;49.812;6.620;2024-02-21T03:17:21;13.43;;;5.10;;
12367;SDS011;6248;49.812;6.620;2024-02-21T03:19:48;10.57;;;5.63;;
12367;SDS011;6248;49.812;6.620;2024-02-21T03:22:15;11.03;;;5.43;;
12367;SDS011;6248;49.812;6.620;2024-02-21T03:24:42;10.43;;;5.50;;
12367;SDS011;6248;49.812;6.620;2024-02-21T03:27:09;11.30;;;5.10;;
12367;SDS011;6248;49.812;6.620;2024-02-21T03:29:36;9.43;;;5.30;;
12367;SDS011;6248;49.812;6.620;2024-02-21T03:32:04;8.43;;;4.70;;
12367;SDS011;6248;49.812;6.620;2024-02-21T03:34:32;13.93;;;5.50;;
12367;SDS011;6248;49.812;6.620;2024-02-21T03:36:59;12.73;;;5.53;;
12367;SDS011;6248;49.812;6.620;2024-02-21T03:39:26;10.83;;;5.70;;
12367;SDS011;6248;49.812;6.620;2024-02-21T03:41:53;12.23;;;4.97;;
12367;SDS011;6248;49.812;6.620;2024-02-21T03:44:21;10.60;;;5.00;;
12367;SDS011;6248;49.812;6.620;2024-02-21T03:46:48;12.47;;;6.17;;
12367;SDS011;6248;49.812;6.620;2024-02-21T03:49:15;13.50;;;5.43;;
12367;SDS011;6248;49.812;6.620;2024-02-21T03:51:44;7.63;;;5.03;;
12367;SDS011;6248;49.812;6.620;2024-02-21T03:54:11;9.97;;;5.70;;
12367;SDS011;6248;49.812;6.620;2024-02-21T03:56:38;13.30;;;5.80;;
12367;SDS011;6248;49.812;6.620;2024-02-21T03:59:06;12.77;;;5.80;;
12367;SDS011;6248;49.812;6.620;2024-02-21T04:01:33;11.33;;;5.30;;
12367;SDS011;6248;49.812;6.620;2024-02-21T04:04:00;9.60;;;5.40;;
12367;SDS011;6248;49.812;6.620;2024-02-21T04:06:27;11.60;;;5.43;;
12367;SDS011;6248;49.812;6.620;2024-02-21T04:08:56;12.37;;;5.63;;
12367;SDS011;6248;49.812;6.620;2024-02-21T04:11:23;11.27;;;6.10;;
12367;SDS011;6248;49.812;6.620;2024-02-21T04:13:50;13.70;;;5.23;;
12367;SDS011;6248;49.812;6.620;2024-02-21T04:16:18;13.27;;;5.40;;
12367;SDS011;6248;49.812;6.620;2024-02-21T04:18:45;11.60;;;5.30;;
12367;SDS011;6248;49.812;6.620;2024-02-21T04:21:14;13.33;;;5.50;;
12367;SDS011;6248;49.812;6.620;2024-02-21T04:23:41;10.97;;;4.73;;
12367;SDS011;6248;49.812;6.620;2024-02-21T04:26:10;11.20;;;5.57;;
12367;SDS011;6248;49.812;6.620;2024-02-21T04:28:37;11.17;;;5.90;;
12367;SDS011;6248;49.812;6.620;2024-02-21T04:31:04;12.60;;;6.47;;
12367;SDS011;6248;49.812;6.620;2024-02-21T04:33:31;13.03;;;5.80;;
12367;SDS011;6248;49.812;6.620;2024-02-21T04:35:58;13.77;;;5.47;;
12367;SDS011;6248;49.812;6.620;2024-02-21T04:38:27;12.77;;;5.60;;
12367;SDS011;6248;49.812;6.620;2024-02-21T04:40:54;12.57;;;5.93;;
12367;SDS011;6248;49.812;6.620;2024-02-21T04:43:24;11.97;;;5.63;;
12367;SDS011;6248;49.812;6.620;2024-02-21T04:45:51;13.17;;;5.30;;
12367;SDS011;6248;49.812;6.620;2024-02-21T04:48:19;13.30;;;6.10;;
12367;SDS011;6248;49.812;6.620;2024-02-21T04:50:46;10.67;;;4.70;;
12367;SDS011;6248;49.812;6.620;2024-02-21T04:53:13;9.90;;;4.60;;
12367;SDS011;6248;49.812;6.620;2024-02-21T04:55:41;13.63;;;5.17;;
12367;SDS011;6248;49.812;6.620;2024-02-21T04:58:08;12.80;;;4.23;;
12367;SDS011;6248;49.812;6.620;2024-02-21T05:00:36;11.53;;;4.70;;
12367;SDS011;6248;49.812;6.620;2024-02-21T05:03:04;10.03;;;4.50;;
12367;SDS011;6248;49.812;6.620;2024-02-21T05:05:31;11.40;;;4.17;;
12367;SDS011;6248;49.812;6.620;2024-02-21T05:07:58;11.30;;;4.17;;
12367;SDS011;6248;49.812;6.620;2024-02-21T05:10:25;11.13;;;4.77;;
12367;SDS011;6248;49.812;6.620;2024-02-21T05:12:52;10.17;;;4.50;;
12367;SDS011;6248;49.812;6.620;2024-02-21T05:15:19;12.37;;;4.13;;
12367;SDS011;6248;49.812;6.620;2024-02-21T05:17:48;13.27;;;4.40;;
12367;SDS011;6248;49.812;6.620;2024-02-21T05:20:15;14.00;;;5.33;;
12367;SDS011;6248;49.812;6.620;2024-02-21T05:22:42;10.57;;;5.10;;
12367;SDS011;6248;49.812;6.620;2024-02-21T05:25:09;8.80;;;4.40;;
12367;SDS011;6248;49.812;6.620;2024-02-21T05:27:36;9.77;;;4.63;;
12367;SDS011;6248;49.812;6.620;2024-02-21T05:30:04;12.43;;;4.40;;
12367;SDS011;6248;49.812;6.620;2024-02-21T05:32:32;9.07;;;4.37;;
12367;SDS011;6248;49.812;6.620;2024-02-21T05:35:01;8.47;;;4.80;;
12367;SDS011;6248;49.812;6.620;2024-02-21T05:37:28;11.80;;;4.57;;
12367;SDS011;6248;49.812;6.620;2024-02-21T05:39:55;11.37;;;4.63;;
12367;SDS011;6248;49.812;6.620;2024-02-21T05:42:22;11.17;;;5.20;;
12367;SDS011;6248;49.812;6.620;2024-02-21T05:44:49;11.73;;;4.97;;
12367;SDS011;6248;49.812;6.620;2024-02-21T05:47:16;11.60;;;4.23;;
12367;SDS011;6248;49.812;6.620;2024-02-21T05:49:45;10.50;;;4.37;;
12367;SDS011;6248;49.812;6.620;2024-02-21T05:52:14;7.97;;;3.90;;
12367;SDS011;6248;49.812;6.620;2024-02-21T05:54:41;8.33;;;3.93;;
12367;SDS011;6248;49.812;6.620;2024-02-21T05:57:08;10.47;;;4.80;;
12367;SDS011;6248;49.812;6.620;2024-02-21T05:59:37;9.53;;;4.50;;
12367;SDS011;6248;49.812;6.620;2024-02-21T06:02:05;9.40;;;4.40;;
12367;SDS011;6248;49.812;6.620;2024-02-21T06:04:32;12.27;;;4.13;;
12367;SDS011;6248;49.812;6.620;2024-02-21T06:06:59;11.53;;;5.03;;
12367;SDS011;6248;49.812;6.620;2024-02-21T06:09:28;10.37;;;4.10;;
12367;SDS011;6248;49.812;6.620;2024-02-21T06:11:55;15.43;;;4.60;;
12367;SDS011;6248;49.812;6.620;2024-02-21T06:14:22;16.10;;;4.73;;
12367;SDS011;6248;49.812;6.620;2024-02-21T06:16:49;11.63;;;4.03;;
12367;SDS011;6248;49.812;6.620;2024-02-21T06:19:16;10.47;;;4.70;;
12367;SDS011;6248;49.812;6.620;2024-02-21T06:21:43;8.97;;;3.67;;
12367;SDS011;6248;49.812;6.620;2024-02-21T06:24:11;14.17;;;5.17;;
12367;SDS011;6248;49.812;6.620;2024-02-21T06:26:39;8.43;;;4.23;;
12367;SDS011;6248;49.812;6.620;2024-02-21T06:29:07;14.63;;;5.00;;
12367;SDS011;6248;49.812;6.620;2024-02-21T06:31:35;13.03;;;4.37;;
12367;SDS011;6248;49.812;6.620;2024-02-21T06:34:02;11.93;;;5.00;;
12367;SDS011;6248;49.812;6.620;2024-02-21T06:36:29;10.27;;;4.67;;
12367;SDS011;6248;49.812;6.620;2024-02-21T06:38:56;12.17;;;4.63;;
12367;SDS011;6248;49.812;6.620;2024-02-21T06:41:23;10.17;;;4.23;;
12367;SDS011;6248;49.812;6.620;2024-02-21T06:43:52;11.27;;;4.43;;
12367;SDS011;6248;49.812;6.620;2024-02-21T06:46:22;11.90;;;4.53;;
12367;SDS011;6248;49.812;6.620;2024-02-21T06:48:50;12.07;;;4.60;;
12367;SDS011;6248;49.812;6.620;2024-02-21T06:51:17;8.27;;;4.00;;
12367;SDS011;6248;49.812;6.620;2024-02-21T06:53:44;9.10;;;4.10;;
12367;SDS011;6248;49.812;6.620;2024-02-21T06:56:11;9.20;;;4.43;;
12367;SDS011;6248;49.812;6.620;2024-02-21T06:58:38;10.50;;;4.20;;
12367;SDS011;6248;49.812;6.620;2024-02-21T07:01:07;7.77;;;4.10;;
12367;SDS011;6248;49.812;6.620;2024-02-21T07:03:35;9.13;;;4.27;;
12367;SDS011;6248;49.812;6.620;2024-02-21T07:06:02;10.73;;;4.60;;
12367;SDS011;6248;49.812;6.620;2024-02-21T07:08:29;8.70;;;4.20;;
12367;SDS011;6248;49.812;6.620;2024-02-21T07:10:56;11.83;;;4.70;;
12367;SDS011;6248;49.812;6.620;2024-02-21T07:13:23;9.50;;;4.10;;
12367;SDS011;6248;49.812;6.620;2024-02-21T07:15:50;9.03;;;4.00;;
12367;SDS011;6248;49.812;6.620;2024-02-21T07:18:19;11.07;;;4.10;;
12367;SDS011;6248;49.812;6.620;2024-02-21T07:20:46;10.50;;;4.10;;
12367;SDS011;6248;49.812;6.620;2024-02-21T07:23:13;11.53;;;4.20;;
12367;SDS011;6248;49.812;6.620;2024-02-21T07:25:40;7.37;;;4.03;;
12367;SDS011;6248;49.812;6.620;2024-02-21T07:28:07;9.87;;;4.37;;
12367;SDS011;6248;49.812;6.620;2024-02-21T07:30:34;10.23;;;3.90;;
12367;SDS011;6248;49.812;6.620;2024-02-21T07:33:02;13.47;;;4.50;;
12367;SDS011;6248;49.812;6.620;2024-02-21T07:35:30;9.83;;;4.00;;
12367;SDS011;6248;49.812;6.620;2024-02-21T07:37:57;12.33;;;4.80;;
12367;SDS011;6248;49.812;6.620;2024-02-21T07:40:24;11.63;;;4.20;;
12367;SDS011;6248;49.812;6.620;2024-02-21T07:42:51;8.23;;;3.50;;
12367;SDS011;6248;49.812;6.620;2024-02-21T07:45:18;10.53;;;3.87;;
12367;SDS011;6248;49.812;6.620;2024-02-21T07:47:48;9.50;;;4.03;;
12367;SDS011;6248;49.812;6.620;2024-02-21T07:50:16;12.03;;;4.27;;
12367;SDS011;6248;49.812;6.620;2024-02-21T07:52:44;8.10;;;3.77;;
12367;SDS011;6248;49.812;6.620;2024-02-21T07:55:11;9.40;;;4.20;;
12367;SDS011;6248;49.812;6.620;2024-02-21T07:57:38;11.77;;;4.00;;
12367;SDS011;6248;49.812;6.620;2024-02-21T08:00:06;10.03;;;3.87;;
12367;SDS011;6248;49.812;6.620;2024-02-21T08:02:34;9.87;;;3.57;;
12367;SDS011;6248;49.812;6.620;2024-02-21T08:05:02;10.93;;;4.17;;
12367;SDS011;6248;49.812;6.620;2024-02-21T08:07:30;9.37;;;3.93;;
12367;SDS011;6248;49.812;6.620;2024-02-21T08:09:58;8.03;;;3.83;;
12367;SDS011;6248;49.812;6.620;2024-02-21T08:12:25;9.53;;;3.80;;
12367;SDS011;6248;49.812;6.620;2024-02-21T08:14:53;10.13;;;4.00;;
12367;SDS011;6248;49.812;6.620;2024-02-21T08:17:20;8.60;;;3.93;;
12367;SDS011;6248;49.812;6.620;2024-02-21T08:19:47;10.43;;;3.90;;
12367;SDS011;6248;49.812;6.620;2024-02-21T08:22:15;11.60;;;4.20;;
12367;SDS011;6248;49.812;6.620;2024-02-21T08:24:42;8.40;;;3.70;;
12367;SDS011;6248;49.812;6.620;2024-02-21T08:27:10;10.07;;;4.03;;
12367;SDS011;6248;49.812;6.620;2024-02-21T08:29:37;9.33;;;3.37;;
12367;SDS011;6248;49.812;6.620;2024-02-21T08:32:04;6.53;;;3.23;;
12367;SDS011;6248;49.812;6.620;2024-02-21T08:34:32;8.47;;;3.77;;
12367;SDS011;6248;49.812;6.620;2024-02-21T08:36:59;10.43;;;3.77;;
12367;SDS011;6248;49.812;6.620;2024-02-21T08:39:26;8.23;;;3.23;;
12367;SDS011;6248;49.812;6.620;2024-02-21T08:41:55;11.23;;;3.87;;
12367;SDS011;6248;49.812;6.620;2024-02-21T08:44:24;8.47;;;3.40;;
12367;SDS011;6248;49.812;6.620;2024-02-21T08:46:51;10.67;;;3.90;;
12367;SDS011;6248;49.812;6.620;2024-02-21T08:49:19;8.63;;;3.33;;
12367;SDS011;6248;49.812;6.620;2024-02-21T08:51:46;9.07;;;3.90;;
12367;SDS011;6248;49.812;6.620;2024-02-21T08:54:13;9.17;;;3.83;;
12367;SDS011;6248;49.812;6.620;2024-02-21T08:56:40;11.00;;;3.63;;
12367;SDS011;6248;49.812;6.620;2024-02-21T08:59:07;9.23;;;3.37;;
12367;SDS011;6248;49.812;6.620;2024-02-21T09:01:35;9.50;;;3.20;;
12367;SDS011;6248;49.812;6.620;2024-02-21T09:04:02;8.30;;;3.40;;
12367;SDS011;6248;49.812;6.620;2024-02-21T09:06:30;8.10;;;3.33;;
12367;SDS011;6248;49.812;6.620;2024-02-21T09:08:58;11.07;;;3.50;;
12367;SDS011;6248;49.812;6.620;2024-02-21T09:11:25;8.13;;;3.13;;
12367;SDS011;6248;49.812;6.620;2024-02-21T09:13:53;7.77;;;3.43;;
12367;SDS011;6248;49.812;6.620;2024-02-21T09:16:21;9.63;;;3.73;;
12367;SDS011;6248;49.812;6.620;2024-02-21T09:18:50;8.73;;;3.93;;
12367;SDS011;6248;49.812;6.620;2024-02-21T09:21:17;9.20;;;3.73;;
12367;SDS011;6248;49.812;6.620;2024-02-21T09:23:44;9.20;;;3.70;;
12367;SDS011;6248;49.812;6.620;2024-02-21T09:26:12;10.57;;;3.63;;
12367;SDS011;6248;49.812;6.620;2024-02-21T09:28:41;8.23;;;3.43;;
12367;SDS011;6248;49.812;6.620;2024-02-21T09:31:08;10.27;;;3.47;;
12367;SDS011;6248;49.812;6.620;2024-02-21T09:33:35;7.93;;;3.23;;
12367;SDS011;6248;49.812;6.620;2024-02-21T09:36:05;10.50;;;3.63;;
12367;SDS011;6248;49.812;6.620;2024-02-21T09:38:32;8.63;;;3.13;;
12367;SDS011;6248;49.812;6.620;2024-02-21T09:40:59;7.93;;;3.67;;
12367;SDS011;6248;49.812;6.620;2024-02-21T09:43:27;10.80;;;3.50;;
12367;SDS011;6248;49.812;6.620;2024-02-21T09:45:54;7.10;;;2.87;;
12367;SDS011;6248;49.812;6.620;2024-02-21T09:48:25;7.97;;;3.43;;
12367;SDS011;6248;49.812;6.620;2024-02-21T09:50:57;8.77;;;2.73;;
12367;SDS011;6248;49.812;6.620;2024-02-21T09:53:27;12.27;;;3.30;;
12367;SDS011;6248;49.812;6.620;2024-02-21T09:55:54;9.67;;;3.23;;
12367;SDS011;6248;49.812;6.620;2024-02-21T09:58:22;6.73;;;2.90;;
12367;SDS011;6248;49.812;6.620;2024-02-21T10:00:51;9.27;;;3.40;;
12367;SDS011;6248;49.812;6.620;2024-02-21T10:03:22;6.33;;;3.00;;
12367;SDS011;6248;49.812;6.620;2024-02-21T10:05:49;11.13;;;4.07;;
12367;SDS011;6248;49.812;6.620;2024-02-21T10:08:17;11.27;;;3.40;;
12367;SDS011;6248;49.812;6.620;2024-02-21T10:10:45;8.40;;;2.80;;
12367;SDS011;6248;49.812;6.620;2024-02-21T10:13:23;6.63;;;3.17;;
12367;SDS011;6248;49.812;6.620;2024-02-21T10:16:00;8.93;;;3.07;;
12367;SDS011;6248;49.812;6.620;2024-02-21T10:18:27;10.23;;;3.30;;
12367;SDS011;6248;49.812;6.620;2024-02-21T10:20:59;10.23;;;3.47;;
12367;SDS011;6248;49.812;6.620;2024-02-21T10:23:29;10.60;;;3.73;;
12367;SDS011;6248;49.812;6.620;2024-02-21T10:26:06;8.73;;;3.40;;
12367;SDS011;6248;49.812;6.620;2024-02-21T10:28:33;8.93;;;3.23;;
12367;SDS011;6248;49.812;6.620;2024-02-21T10:31:00;10.57;;;3.40;;
12367;SDS011;6248;49.812;6.620;2024-02-21T10:33:27;10.73;;;3.33;;
12367;SDS011;6248;49.812;6.620;2024-02-21T10:36:05;10.33;;;3.17;;
12367;SDS011;6248;49.812;6.620;2024-02-21T10:38:33;10.40;;;3.20;;
12367;SDS011;6248;49.812;6.620;2024-02-21T10:41:00;8.43;;;3.13;;
12367;SDS011;6248;49.812;6.620;2024-02-21T10:43:30;12.00;;;3.30;;
12367;SDS011;6248;49.812;6.620;2024-02-21T10:45:59;12.37;;;3.63;;
12367;SDS011;6248;49.812;6.620;2024-02-21T10:48:29;11.57;;;3.97;;
12367;SDS011;6248;49.812;6.620;2024-02-21T10:51:02;8.07;;;3.57;;
12367;SDS011;6248;49.812;6.620;2024-02-21T10:53:34;9.47;;;3.93;;
12367;SDS011;6248;49.812;6.620;2024-02-21T10:56:06;8.47;;;3.50;;
12367;SDS011;6248;49.812;6.620;2024-02-21T10:58:35;10.17;;;3.60;;
12367;SDS011;6248;49.812;6.620;2024-02-21T11:01:02;10.10;;;3.30;;
12367;SDS011;6248;49.812;6.620;2024-02-21T11:03:31;10.97;;;3.20;;
12367;SDS011;6248;49.812;6.620;2024-02-21T11:05:58;8.93;;;3.23;;
12367;SDS011;6248;49.812;6.620;2024-02-21T11:08:25;7.53;;;3.07;;
12367;SDS011;6248;49.812;6.620;2024-02-21T11:10:56;6.27;;;2.67;;
12367;SDS011;6248;49.812;6.620;2024-02-21T11:13:29;8.47;;;2.90;;
12367;SDS011;6248;49.812;6.620;2024-02-21T11:16:11;6.77;;;3.10;;
12367;SDS011;6248;49.812;6.620;2024-02-21T11:18:38;9.70;;;3.03;;
12367;SDS011;6248;49.812;6.620;2024-02-21T11:21:05;8.90;;;3.50;;
12367;SDS011;6248;49.812;6.620;2024-02-21T11:23:34;7.13;;;2.83;;
12367;SDS011;6248;49.812;6.620;2024-02-21T11:26:04;7.93;;;3.17;;
12367;SDS011;6248;49.812;6.620;2024-02-21T11:28:32;9.00;;;3.10;;
12367;SDS011;6248;49.812;6.620;2024-02-21T11:31:08;8.07;;;3.03;;
12367;SDS011;6248;49.812;6.620;2024-02-21T11:33:37;8.10;;;3.10;;
12367;SDS011;6248;49.812;6.620;2024-02-21T11:36:06;10.77;;;3.47;;
12367;SDS011;6248;49.812;6.620;2024-02-21T11:38:33;9.87;;;3.10;;
12367;SDS011;6248;49.812;6.620;2024-02-21T11:41:00;9.70;;;3.10;;
12367;SDS011;6248;49.812;6.620;2024-02-21T11:43:27;10.10;;;3.80;;
12367;SDS011;6248;49.812;6.620;2024-02-21T11:46:00;8.40;;;2.77;;
12367;SDS011;6248;49.812;6.620;2024-02-21T11:48:29;6.77;;;3.27;;
12367;SDS011;6248;49.812;6.620;2024-02-21T11:50:58;9.13;;;3.20;;
12367;SDS011;6248;49.812;6.620;2024-02-21T11:53:26;9.07;;;2.97;;
12367;SDS011;6248;49.812;6.620;2024-02-21T11:55:56;6.87;;;2.77;;
12367;SDS011;6248;49.812;6.620;2024-02-21T11:58:23;9.03;;;3.27;;
12367;SDS011;6248;49.812;6.620;2024-02-21T12:00:50;8.43;;;3.13;;
12367;SDS011;6248;49.812;6.620;2024-02-21T12:03:17;8.10;;;3.20;;
12367;SDS011;6248;49.812;6.620;2024-02-21T12:05:44;6.30;;;3.17;;
12367;SDS011;6248;49.812;6.620;2024-02-21T12:08:14;9.57;;;3.17;;
12367;SDS011;6248;49.812;6.620;2024-02-21T12:10:42;8.13;;;3.10;;
12367;SDS011;6248;49.812;6.620;2024-02-21T12:13:16;8.00;;;2.93;;
12367;SDS011;6248;49.812;6.620;2024-02-21T12:15:47;5.90;;;2.70;;
12367;SDS011;6248;49.812;6.620;2024-02-21T12:18:14;8.20;;;2.77;;
12367;SDS011;6248;49.812;6.620;2024-02-21T12:20:42;7.90;;;2.67;;
12367;SDS011;6248;49.812;6.620;2024-02-21T12:23:11;6.30;;;2.70;;
12367;SDS011;6248;49.812;6.620;2024-02-21T12:25:39;8.00;;;3.10;;
12367;SDS011;6248;49.812;6.620;2024-02-21T12:28:06;7.17;;;3.20;;
12367;SDS011;6248;49.812;6.620;2024-02-21T12:30:33;7.17;;;3.20;;
12367;SDS011;6248;49.812;6.620;2024-02-21T12:33:04;6.87;;;3.00;;
12367;SDS011;6248;49.812;6.620;2024-02-21T12:35:31;6.47;;;2.70;;
12367;SDS011;6248;49.812;6.620;2024-02-21T12:37:58;10.40;;;3.00;;
12367;SDS011;6248;49.812;6.620;2024-02-21T12:40:26;7.27;;;2.63;;
12367;SDS011;6248;49.812;6.620;2024-02-21T12:42:58;10.57;;;3.17;;
12367;SDS011;6248;49.812;6.620;2024-02-21T12:45:27;6.30;;;2.87;;
12367;SDS011;6248;49.812;6.620;2024-02-21T12:47:55;8.53;;;2.83;;
12367;SDS011;6248;49.812;6.620;2024-02-21T12:50:22;8.70;;;2.97;;
12367;SDS011;6248;49.812;6.620;2024-02-21T12:52:50;9.67;;;3.40;;
12367;SDS011;6248;49.812;6.620;2024-02-21T12:55:17;8.83;;;2.90;;
12367;SDS011;6248;49.812;6.620;2024-02-21T12:57:45;7.00;;;2.93;;
12367;SDS011;6248;49.812;6.620;2024-02-21T13:00:14;8.77;;;2.87;;
12367;SDS011;6248;49.812;6.620;2024-02-21T13:02:41;6.27;;;2.83;;
12367;SDS011;6248;49.812;6.620;2024-02-21T13:05:08;6.97;;;2.90;;
12367;SDS011;6248;49.812;6.620;2024-02-21T13:07:36;5.60;;;2.60;;
12367;SDS011;6248;49.812;6.620;2024-02-21T13:10:04;7.07;;;2.60;;
12367;SDS011;6248;49.812;6.620;2024-02-21T13:12:31;5.03;;;2.60;;
12367;SDS011;6248;49.812;6.620;2024-02-21T13:14:58;11.97;;;3.47;;
12367;SDS011;6248;49.812;6.620;2024-02-21T13:17:27;6.33;;;3.00;;
12367;SDS011;6248;49.812;6.620;2024-02-21T13:19:56;5.90;;;2.80;;
12367;SDS011;6248;49.812;6.620;2024-02-21T13:22:23;7.10;;;2.93;;
12367;SDS011;6248;49.812;6.620;2024-02-21T13:24:51;6.93;;;2.90;;
12367;SDS011;6248;49.812;6.620;2024-02-21T13:27:19;6.70;;;2.77;;
12367;SDS011;6248;49.812;6.620;2024-02-21T13:29:46;6.93;;;2.43;;
12367;SDS011;6248;49.812;6.620;2024-02-21T13:32:13;5.53;;;2.73;;
12367;SDS011;6248;49.812;6.620;2024-02-21T13:34:42;7.00;;;2.60;;
12367;SDS011;6248;49.812;6.620;2024-02-21T13:37:09;5.77;;;2.77;;
12367;SDS011;6248;49.812;6.620;2024-02-21T13:39:36;5.90;;;2.40;;
12367;SDS011;6248;49.812;6.620;2024-02-21T13:42:04;7.73;;;2.70;;
12367;SDS011;6248;49.812;6.620;2024-02-21T13:44:31;7.20;;;2.63;;
12367;SDS011;6248;49.812;6.620;2024-02-21T13:46:59;7.83;;;2.70;;
12367;SDS011;6248;49.812;6.620;2024-02-21T13:49:27;5.53;;;2.50;;
12367;SDS011;6248;49.812;6.620;2024-02-21T13:51:55;9.43;;;2.43;;
12367;SDS011;6248;49.812;6.620;2024-02-21T13:54:22;7.00;;;2.43;;
12367;SDS011;6248;49.812;6.620;2024-02-21T13:56:50;6.47;;;2.40;;
12367;SDS011;6248;49.812;6.620;2024-02-21T13:59:17;6.17;;;3.03;;
12367;SDS011;6248;49.812;6.620;2024-02-21T14:01:44;6.70;;;2.33;;
12367;SDS011;6248;49.812;6.620;2024-02-21T14:04:11;6.00;;;2.37;;
12367;SDS011;6248;49.812;6.620;2024-02-21T14:06:38;8.03;;;2.97;;
12367;SDS011;6248;49.812;6.620;2024-02-21T14:09:09;5.80;;;2.80;;
12367;SDS011;6248;49.812;6.620;2024-02-21T14:11:37;4.73;;;2.50;;
12367;SDS011;6248;49.812;6.620;2024-02-21T14:14:05;6.33;;;2.90;;
12367;SDS011;6248;49.812;6.620;2024-02-21T14:16:32;7.63;;;2.77;;
12367;SDS011;6248;49.812;6.620;2024-02-21T14:18:59;6.10;;;2.67;;
12367;SDS011;6248;49.812;6.620;2024-02-21T14:21:27;6.40;;;2.60;;
12367;SDS011;6248;49.812;6.620;2024-02-21T14:23:54;6.33;;;2.97;;
12367;SDS011;6248;49.812;6.620;2024-02-21T14:26:24;6.87;;;2.73;;
12367;SDS011;6248;49.812;6.620;2024-02-21T14:28:51;6.37;;;3.03;;
12367;SDS011;6248;49.812;6.620;2024-02-21T14:31:18;6.77;;;3.20;;
12367;SDS011;6248;49.812;6.620;2024-02-21T14:33:45;5.60;;;2.37;;
12367;SDS011;6248;49.812;6.620;2024-02-21T14:36:13;4.77;;;2.50;;
12367;SDS011;6248;49.812;6.620;2024-02-21T14:38:40;6.10;;;3.17;;
12367;SDS011;6248;49.812;6.620;2024-02-21T14:41:08;7.40;;;2.73;;
12367;SDS011;6248;49.812;6.620;2024-02-21T14:43:38;8.30;;;3.13;;
12367;SDS011;6248;49.812;6.620;2024-02-21T14:46:05;7.37;;;2.83;;
12367;SDS011;6248;49.812;6.620;2024-02-21T14:48:32;5.73;;;2.33;;
12367;SDS011;6248;49.812;6.620;2024-02-21T14:51:00;4.57;;;1.93;;
12367;SDS011;6248;49.812;6.620;2024-02-21T14:53:27;6.33;;;2.83;;
12367;SDS011;6248;49.812;6.620;2024-02-21T14:55:54;5.57;;;3.00;;
12367;SDS011;6248;49.812;6.620;2024-02-21T14:58:20;6.43;;;2.43;;